Waukesha, WI

11:48 AM CDT on May 29, 2015 (GMT -0500)
Woodfield Park | | Change Station
CLOSE
Current Station
Personal Weather Station
Location: Waukesha, WI
Elevation: 883 ft
Nearby Weather Stations

Elev 883 ft 43.01 °N, 88.26 °W | Updated 11 seconds ago

Overcast
Overcast
76.1 °F
Feels Like 77 °F
N
0.0
Wind Variable Wind from WNW
Gusts 0.0 mph

Today
High -- | Low -- °F
--% Chance of Precip.
Yesterday
High -- | Low -- °F
Precip. -- in
5:18 AM 8:22 PM
Waxing Gibbous, 84% visible
Pressure 30.01 in
Visibility 10.0 miles
Clouds Mostly Cloudy 3200 ft
Mostly Cloudy 4100 ft
Overcast 4800 ft
Heat Index 77 °F
Dew Point 70 °F
Humidity 83%
Rainfall 0.00 in
Snow Depth Not available.
UV 4.0 out of 12
Pollen 4.60 out of 12
Air Quality Not available.
Flu Activity Sporadic
METAR KUES 291545Z 21008KT 10SM BKN032 BKN041 OVC048 25/18 A3001

More Conditions Fewer Conditions

Pressure 30.01 in
Visibility 10.0 miles
Clouds Mostly Cloudy 3200 ft
Mostly Cloudy 4100 ft
Overcast 4800 ft
Heat Index 77 °F
Dew Point 70 °F
Humidity 83%
Rainfall 0.00 in
Snow Depth Not available.
UV 4.0 out of 12
Pollen 4.60 out of 12
Air Quality Not available.
Flu Activity Sporadic
METAR KUES 291545Z 21008KT 10SM BKN032 BKN041 OVC048 25/18 A3001

More Conditions Fewer Conditions

Nowcast | as of 11:08 am CDT on May 29, 2015

Scattered showers and thunderstorms will continue to develop over southern Wisconsin late this morning and early afternoon. The leading edge of the scattered showers and thunderstorms extended from around Monroe...to Milton to near East Troy...and were moving north at 25 mph. Brief heavy rainfall are likely with the showers and thunderstorms. Keep one eye on the sky this afternoon for approaching thunderstorms...and be ready to seek shelter.

×

10-Day Weather Forecast

Almanac

Astronomy

May. 29, 2015 Rise Set
Actual Time
Civil Twilight
Nautical Twilight
Astronomical Twilight
Moon
Length of Visible Light
Length of Day
Tomorrow will be .
, % of the Moon is Illuminated

Today's Extremes

State Highs State Lows

Community

WunderPhotos

Upload Photos

1,825,301 photos uploaded!

WunderBlogs® & News

Nearby

Air Quality

  Air Quality AQ Index Pollutant
Not available.

Snow Depth

Station Depth Elevation

Earthquake Activity

City Distance Mag. Time & Date
Minimum magnitude displayed is 2.5.

Coastal Water Temperatures

Place Temperature

Stations

Nearby Weather Stations

Station Location Temp. Windchill Dew Point Humidity Wind Precip. Elev Updated Type